createdAt,value
2022-08-21T00:00:01.632Z,1.60
2022-08-21T00:02:30.418Z,1.77
2022-08-21T00:04:58.134Z,2.27
2022-08-21T00:07:26.927Z,2.00
2022-08-21T00:09:55.114Z,2.00
2022-08-21T00:12:23.562Z,1.77
2022-08-21T00:14:51.223Z,2.00
2022-08-21T00:17:26.218Z,2.30
2022-08-21T00:19:53.939Z,2.00
2022-08-21T00:22:22.688Z,1.90
2022-08-21T00:24:50.741Z,1.50
2022-08-21T00:27:18.400Z,1.67
2022-08-21T00:29:46.317Z,1.70
2022-08-21T00:32:14.270Z,1.60
2022-08-21T00:35:00.276Z,1.73
2022-08-21T00:37:28.180Z,1.30
2022-08-21T00:39:58.329Z,1.90
2022-08-21T00:42:26.327Z,1.93
2022-08-21T00:44:54.047Z,1.67
2022-08-21T00:47:22.127Z,1.30
2022-08-21T00:49:51.146Z,1.50
2022-08-21T00:52:22.771Z,1.97
2022-08-21T00:54:51.194Z,1.73
2022-08-21T00:57:22.102Z,1.47
2022-08-21T00:59:57.851Z,1.30
2022-08-21T01:02:26.733Z,2.10
2022-08-21T01:04:55.877Z,2.00
2022-08-21T01:07:23.745Z,1.70
2022-08-21T01:09:55.434Z,1.50
2022-08-21T01:12:23.964Z,1.43
2022-08-21T01:14:51.770Z,1.27
2022-08-21T01:17:22.486Z,1.63
2022-08-21T01:19:50.146Z,1.70
2022-08-21T01:22:20.436Z,1.80
2022-08-21T01:24:48.129Z,1.33
2022-08-21T01:27:16.064Z,1.47
2022-08-21T01:29:47.308Z,1.27
2022-08-21T01:32:17.677Z,1.40
2022-08-21T01:34:51.029Z,1.80
2022-08-21T01:37:21.119Z,1.47
2022-08-21T01:39:48.962Z,1.20
2022-08-21T01:42:17.184Z,1.70
2022-08-21T01:44:45.504Z,1.60
2022-08-21T01:47:15.909Z,1.30
2022-08-21T01:49:46.269Z,1.50
2022-08-21T01:52:14.121Z,1.40
2022-08-21T01:54:43.788Z,1.63
2022-08-21T01:57:12.954Z,1.57
2022-08-21T01:59:41.143Z,1.30
2022-08-21T02:02:09.438Z,1.70
2022-08-21T02:04:37.299Z,1.47
2022-08-21T02:07:08.349Z,1.00
2022-08-21T02:09:36.202Z,1.07
2022-08-21T02:12:10.037Z,1.27
2022-08-21T02:14:37.734Z,1.30
2022-08-21T02:17:09.255Z,1.63
2022-08-21T02:19:40.334Z,1.20
2022-08-21T02:22:09.065Z,1.20
2022-08-21T02:24:38.516Z,1.23
2022-08-21T02:27:26.570Z,1.47
2022-08-21T02:29:56.340Z,1.37
2022-08-21T02:32:24.019Z,1.60
2022-08-21T02:34:51.709Z,1.40
2022-08-21T02:37:19.415Z,1.50
2022-08-21T02:39:47.185Z,1.70
2022-08-21T02:42:14.962Z,1.37
2022-08-21T02:44:44.170Z,1.13
2022-08-21T02:47:11.897Z,1.40
2022-08-21T02:49:39.622Z,1.47
2022-08-21T02:52:07.522Z,1.23
2022-08-21T02:54:35.206Z,1.67
2022-08-21T02:57:02.989Z,1.67
2022-08-21T02:59:30.709Z,1.40
2022-08-21T03:01:59.963Z,1.40
2022-08-21T03:04:27.679Z,1.80
2022-08-21T03:06:55.427Z,1.63
2022-08-21T03:09:23.161Z,1.60
2022-08-21T03:11:51.373Z,2.03
2022-08-21T03:14:19.435Z,1.83
2022-08-21T03:16:47.551Z,2.40
2022-08-21T03:19:16.710Z,1.63
2022-08-21T03:21:44.505Z,1.60
2022-08-21T03:24:12.241Z,1.73
2022-08-21T03:26:41.442Z,1.30
2022-08-21T03:29:09.329Z,1.50
2022-08-21T03:31:37.112Z,2.13
2022-08-21T03:34:04.857Z,2.10
2022-08-21T03:36:33.936Z,1.50
2022-08-21T03:39:01.689Z,1.23
2022-08-21T03:41:29.407Z,1.80
2022-08-21T03:43:57.112Z,1.40
2022-08-21T03:46:24.782Z,2.30
2022-08-21T03:48:53.647Z,1.53
2022-08-21T03:51:21.436Z,1.60
2022-08-21T03:53:50.545Z,1.67
2022-08-21T03:56:18.296Z,1.40
2022-08-21T03:58:46.597Z,1.50
2022-08-21T04:01:14.349Z,1.47
2022-08-21T04:03:42.122Z,1.40
2022-08-21T04:06:09.858Z,1.57
2022-08-21T04:08:37.672Z,1.70
2022-08-21T04:11:08.366Z,2.40
2022-08-21T04:13:36.236Z,1.90
2022-08-21T04:16:12.651Z,1.70
2022-08-21T04:18:40.569Z,1.80
2022-08-21T04:21:10.966Z,1.93
2022-08-21T04:23:39.378Z,1.47
2022-08-21T04:26:08.784Z,2.20
2022-08-21T04:28:36.633Z,1.80
2022-08-21T04:31:05.027Z,1.50
2022-08-21T04:33:32.888Z,1.77
2022-08-21T04:36:00.598Z,2.20
2022-08-21T04:38:33.157Z,1.33
2022-08-21T04:41:06.422Z,1.80
2022-08-21T04:43:35.588Z,1.73
2022-08-21T04:46:03.414Z,1.90
2022-08-21T04:48:31.245Z,2.20
2022-08-21T04:51:03.429Z,2.40
2022-08-21T04:53:37.127Z,1.80
2022-08-21T04:56:10.175Z,2.10
2022-08-21T04:58:42.566Z,2.70
2022-08-21T05:01:15.190Z,2.00
2022-08-21T05:03:43.097Z,1.77
2022-08-21T05:06:16.903Z,2.03
2022-08-21T05:08:47.546Z,1.70
2022-08-21T05:11:15.271Z,1.70
2022-08-21T05:13:44.443Z,1.50
2022-08-21T05:16:12.196Z,1.90
2022-08-21T05:18:40.093Z,2.13
2022-08-21T05:21:07.792Z,2.10
2022-08-21T05:23:35.780Z,2.10
2022-08-21T05:26:04.894Z,1.73
2022-08-21T05:28:33.093Z,1.83
2022-08-21T05:31:02.595Z,1.93
2022-08-21T05:33:30.541Z,2.13
2022-08-21T05:35:58.521Z,2.13
2022-08-21T05:38:29.509Z,1.90
2022-08-21T05:40:57.664Z,2.47
2022-08-21T05:43:25.565Z,1.63
2022-08-21T05:45:53.382Z,1.87
2022-08-21T05:48:24.751Z,1.77
2022-08-21T05:50:53.729Z,3.50
2022-08-21T05:53:23.139Z,2.20
2022-08-21T05:55:51.922Z,2.07
2022-08-21T05:58:23.816Z,1.93
2022-08-21T06:00:53.794Z,1.70
2022-08-21T06:03:26.175Z,1.80
2022-08-21T06:05:54.340Z,2.13
2022-08-21T06:08:23.454Z,1.90
2022-08-21T06:10:53.792Z,3.00
2022-08-21T06:13:22.893Z,2.47
2022-08-21T06:15:51.794Z,2.20
2022-08-21T06:18:19.711Z,2.50
2022-08-21T06:20:48.915Z,3.00
2022-08-21T06:23:16.667Z,1.93
2022-08-21T06:25:44.526Z,2.50
2022-08-21T06:28:13.727Z,2.60
2022-08-21T06:30:42.063Z,2.57
2022-08-21T06:33:10.293Z,2.20
2022-08-21T06:35:38.186Z,2.50
2022-08-21T06:38:11.139Z,2.30
2022-08-21T06:40:44.829Z,2.23
2022-08-21T06:43:18.339Z,2.30
2022-08-21T06:45:46.527Z,3.07
2022-08-21T06:48:18.919Z,2.70
2022-08-21T06:50:47.477Z,2.73
2022-08-21T06:53:20.259Z,2.77
2022-08-21T06:55:49.549Z,2.63
2022-08-21T06:58:18.049Z,2.50
2022-08-21T07:00:48.213Z,2.53
2022-08-21T07:03:21.205Z,2.53
2022-08-21T07:05:49.059Z,2.17
2022-08-21T07:08:18.502Z,2.07
2022-08-21T07:10:47.571Z,2.70
2022-08-21T07:13:15.529Z,2.57
2022-08-21T07:15:43.409Z,2.60
2022-08-21T07:18:11.212Z,2.97
2022-08-21T07:20:38.919Z,3.07
2022-08-21T07:23:10.922Z,3.40
2022-08-21T07:25:40.553Z,2.90
2022-08-21T07:28:08.302Z,3.10
2022-08-21T07:30:36.067Z,4.30
2022-08-21T07:33:04.815Z,4.10
2022-08-21T07:35:34.174Z,5.50
2022-08-21T07:38:02.036Z,3.93
2022-08-21T07:40:29.736Z,4.03
2022-08-21T07:42:59.016Z,3.80
2022-08-21T07:45:27.218Z,3.90
2022-08-21T07:47:57.489Z,2.33
2022-08-21T07:50:26.138Z,2.53
2022-08-21T07:52:54.734Z,3.50
2022-08-21T07:55:24.678Z,3.10
2022-08-21T07:57:52.524Z,3.03
2022-08-21T08:00:24.351Z,2.50
2022-08-21T08:02:55.093Z,3.03
2022-08-21T08:05:26.935Z,3.57
2022-08-21T08:07:55.142Z,2.93
2022-08-21T08:10:23.793Z,3.63
2022-08-21T08:12:52.848Z,3.00
2022-08-21T08:15:24.969Z,3.40
2022-08-21T08:17:53.167Z,4.27
2022-08-21T08:20:22.513Z,2.90
2022-08-21T08:22:50.613Z,2.83
2022-08-21T08:25:20.526Z,3.80
2022-08-21T08:27:48.292Z,3.73
2022-08-21T08:30:19.131Z,3.73
2022-08-21T08:32:50.459Z,3.77
2022-08-21T08:35:18.584Z,3.90
2022-08-21T08:37:52.370Z,4.60
2022-08-21T08:40:26.774Z,4.10
2022-08-21T08:42:54.489Z,4.40
2022-08-21T08:45:25.184Z,3.50
2022-08-21T08:47:59.019Z,4.17
2022-08-21T08:50:35.377Z,4.13
2022-08-21T08:53:08.266Z,4.47
2022-08-21T08:55:38.816Z,3.80
2022-08-21T08:58:07.243Z,3.30
2022-08-21T09:00:35.411Z,3.57
2022-08-21T09:03:05.411Z,4.20
2022-08-21T09:05:45.130Z,4.30
2022-08-21T09:08:43.539Z,3.70
2022-08-21T09:11:24.765Z,4.07
2022-08-21T09:14:02.258Z,4.00
2022-08-21T09:16:41.503Z,3.97
2022-08-21T09:19:26.098Z,4.03
2022-08-21T09:22:02.959Z,4.40
2022-08-21T09:24:34.498Z,3.80
2022-08-21T09:27:08.291Z,4.50
2022-08-21T09:29:38.794Z,3.63
2022-08-21T09:32:20.586Z,4.40
2022-08-21T09:35:01.961Z,5.00
2022-08-21T09:37:31.703Z,3.97
2022-08-21T09:40:00.488Z,4.47
2022-08-21T09:42:33.054Z,4.67
2022-08-21T09:45:12.264Z,4.67
2022-08-21T09:47:40.067Z,3.40
2022-08-21T09:50:16.064Z,3.70
2022-08-21T09:52:52.214Z,3.37
2022-08-21T09:55:51.164Z,3.40
2022-08-21T09:58:20.187Z,4.40
2022-08-21T10:00:48.139Z,3.37
2022-08-21T10:03:22.458Z,4.00
2022-08-21T10:05:58.952Z,4.03
2022-08-21T10:08:29.489Z,3.27
2022-08-21T10:11:03.119Z,3.50
2022-08-21T10:13:45.450Z,3.93
2022-08-21T10:16:26.259Z,3.83
2022-08-21T10:19:04.828Z,3.37
2022-08-21T10:21:43.079Z,3.40
2022-08-21T10:24:30.531Z,4.50
2022-08-21T10:27:12.982Z,4.07
2022-08-21T10:29:47.364Z,3.30
2022-08-21T10:32:27.438Z,3.80
2022-08-21T10:35:04.284Z,3.30
2022-08-21T10:37:44.939Z,3.17
2022-08-21T10:40:23.304Z,3.90
2022-08-21T10:43:04.271Z,3.13
2022-08-21T10:45:44.413Z,3.23
2022-08-21T10:48:22.219Z,2.80
2022-08-21T10:50:54.662Z,2.60
2022-08-21T10:53:37.966Z,3.10
2022-08-21T10:56:15.256Z,3.53
2022-08-21T10:58:51.512Z,2.30
2022-08-21T11:01:22.960Z,3.80
2022-08-21T11:03:56.500Z,2.87
2022-08-21T11:06:32.974Z,4.30
2022-08-21T11:09:12.943Z,4.97
2022-08-21T11:11:50.162Z,2.90
2022-08-21T11:14:38.244Z,3.27
2022-08-21T11:17:12.022Z,3.53
2022-08-21T11:19:47.523Z,4.07
2022-08-21T11:22:20.810Z,3.17
2022-08-21T11:24:56.660Z,2.63
2022-08-21T11:27:28.800Z,2.90
2022-08-21T11:29:59.406Z,2.23
2022-08-21T11:32:46.246Z,2.00
2022-08-21T11:35:25.274Z,2.30
2022-08-21T11:38:18.354Z,2.53
2022-08-21T11:41:04.216Z,1.80
2022-08-21T11:43:39.840Z,2.27
2022-08-21T11:46:27.464Z,2.77
2022-08-21T11:49:08.697Z,2.33
2022-08-21T11:51:41.377Z,2.07
2022-08-21T11:54:25.255Z,3.03
2022-08-21T11:57:01.659Z,2.30
2022-08-21T11:59:45.078Z,2.50
2022-08-21T12:02:17.186Z,2.20
2022-08-21T12:04:49.190Z,1.90
2022-08-21T12:07:31.833Z,2.33
2022-08-21T12:10:00.917Z,1.90
2022-08-21T12:12:31.922Z,2.17
2022-08-21T12:15:16.505Z,2.20
2022-08-21T12:17:56.354Z,2.20
2022-08-21T12:20:50.704Z,2.17
2022-08-21T12:23:28.958Z,2.43
2022-08-21T12:26:23.846Z,2.80
2022-08-21T12:28:53.295Z,1.90
2022-08-21T12:31:25.727Z,2.20
2022-08-21T12:33:59.180Z,2.80
2022-08-21T12:36:38.891Z,2.50
2022-08-21T12:39:13.294Z,2.40
2022-08-21T12:41:52.236Z,2.30
2022-08-21T12:44:26.642Z,6.17
2022-08-21T12:47:00.345Z,4.10
2022-08-21T12:49:34.122Z,2.00
2022-08-21T12:52:13.398Z,2.13
2022-08-21T12:54:44.342Z,1.97
2022-08-21T12:57:21.195Z,4.13
2022-08-21T12:59:56.810Z,2.70
2022-08-21T13:02:31.658Z,3.47
2022-08-21T13:05:00.456Z,2.00
2022-08-21T13:07:31.652Z,3.37
2022-08-21T13:10:06.717Z,2.47
2022-08-21T13:12:37.064Z,2.47
2022-08-21T13:15:09.082Z,2.57
2022-08-21T13:17:42.011Z,2.53
2022-08-21T13:20:12.359Z,2.07
2022-08-21T13:22:45.004Z,1.73
2022-08-21T13:25:14.119Z,2.13
2022-08-21T13:27:42.474Z,3.10
2022-08-21T13:30:15.631Z,2.03
2022-08-21T13:32:46.331Z,1.67
2022-08-21T13:35:17.705Z,2.80
2022-08-21T13:37:48.362Z,2.50
2022-08-21T13:40:19.737Z,2.73
2022-08-21T13:42:49.879Z,1.90
2022-08-21T13:45:25.129Z,20.70
2022-08-21T13:47:54.053Z,4.10
2022-08-21T13:50:24.956Z,2.40
2022-08-21T13:53:02.577Z,7.07
2022-08-21T13:55:40.227Z,6.80
2022-08-21T13:58:09.354Z,2.90
2022-08-21T14:00:47.976Z,2.70
2022-08-21T14:03:28.727Z,1.50
2022-08-21T14:05:56.514Z,1.87
2022-08-21T14:08:33.339Z,2.20
2022-08-21T14:11:02.568Z,2.20
2022-08-21T14:13:38.672Z,1.57
2022-08-21T14:16:16.536Z,1.60
2022-08-21T14:18:53.378Z,2.03
2022-08-21T14:21:34.253Z,1.73
2022-08-21T14:24:06.875Z,2.90
2022-08-21T14:26:38.277Z,2.33
2022-08-21T14:29:10.892Z,1.87
2022-08-21T14:31:43.346Z,2.07
2022-08-21T14:34:19.106Z,2.13
2022-08-21T14:36:47.907Z,2.23
2022-08-21T14:39:15.803Z,2.00
2022-08-21T14:41:43.859Z,2.10
2022-08-21T14:44:12.117Z,2.07
2022-08-21T14:46:55.314Z,2.00
2022-08-21T14:49:27.709Z,2.53
2022-08-21T14:51:58.559Z,2.20
2022-08-21T14:54:31.566Z,2.50
2022-08-21T14:57:02.633Z,2.23
2022-08-21T14:59:31.248Z,2.70
2022-08-21T15:02:05.379Z,2.07
2022-08-21T15:04:33.415Z,1.93
2022-08-21T15:07:01.295Z,2.60
2022-08-21T15:09:29.240Z,2.80
2022-08-21T15:12:00.591Z,2.57
2022-08-21T15:14:30.758Z,2.20
2022-08-21T15:16:58.818Z,2.67
2022-08-21T15:19:28.334Z,2.50
2022-08-21T15:21:56.212Z,2.27
2022-08-21T15:24:24.445Z,2.77
2022-08-21T15:26:53.134Z,1.93
2022-08-21T15:29:22.637Z,2.57
2022-08-21T15:31:56.657Z,2.53
2022-08-21T15:34:27.220Z,1.67
2022-08-21T15:36:58.152Z,2.20
2022-08-21T15:39:31.256Z,2.10
2022-08-21T15:41:59.924Z,2.30
2022-08-21T15:44:31.397Z,1.97
2022-08-21T15:47:00.737Z,2.20
2022-08-21T15:49:28.399Z,2.70
2022-08-21T15:51:57.428Z,2.20
2022-08-21T15:54:25.150Z,2.00
2022-08-21T15:56:53.543Z,2.03
2022-08-21T15:59:27.732Z,2.30
2022-08-21T16:01:55.603Z,2.80
2022-08-21T16:04:26.282Z,2.00
2022-08-21T16:07:01.770Z,2.20
2022-08-21T16:09:34.431Z,2.37
2022-08-21T16:12:03.350Z,2.57
2022-08-21T16:14:32.318Z,2.10
2022-08-21T16:17:00.291Z,2.13
2022-08-21T16:19:30.684Z,1.77
2022-08-21T16:21:58.346Z,2.27
2022-08-21T16:24:26.065Z,2.37
2022-08-21T16:26:58.067Z,2.07
2022-08-21T16:29:31.338Z,2.20
2022-08-21T16:31:59.070Z,2.43
2022-08-21T16:34:28.504Z,2.20
2022-08-21T16:36:56.264Z,2.40
2022-08-21T16:39:24.200Z,2.57
2022-08-21T16:41:52.040Z,2.60
2022-08-21T16:44:22.900Z,2.20
2022-08-21T16:46:50.849Z,2.00
2022-08-21T16:49:18.474Z,2.60
2022-08-21T16:51:46.088Z,1.97
2022-08-21T16:54:13.963Z,2.07
2022-08-21T16:56:45.713Z,2.10
2022-08-21T16:59:15.267Z,2.50
2022-08-21T17:01:47.073Z,2.30
2022-08-21T17:04:14.972Z,6.03
2022-08-21T17:06:44.014Z,4.40
2022-08-21T17:09:12.480Z,4.30
2022-08-21T17:11:42.725Z,2.67
2022-08-21T17:14:13.574Z,3.27
2022-08-21T17:16:46.335Z,2.43
2022-08-21T17:19:16.180Z,2.50
2022-08-21T17:21:45.706Z,3.00
2022-08-21T17:24:15.461Z,2.70
2022-08-21T17:26:44.313Z,4.07
2022-08-21T17:29:14.400Z,3.70
2022-08-21T17:31:43.499Z,9.77
2022-08-21T17:34:11.532Z,20.53
2022-08-21T17:36:40.679Z,20.37
2022-08-21T17:39:09.836Z,14.40
2022-08-21T17:41:37.967Z,17.80
2022-08-21T17:44:09.410Z,13.17
2022-08-21T17:46:39.668Z,9.10
2022-08-21T17:49:08.261Z,13.77
2022-08-21T17:51:36.164Z,14.83
2022-08-21T17:54:05.413Z,14.20
2022-08-21T17:56:36.185Z,7.57
2022-08-21T17:59:05.762Z,11.17
2022-08-21T18:01:36.492Z,9.90
2022-08-21T18:04:04.777Z,8.00
2022-08-21T18:06:32.669Z,7.40
2022-08-21T18:09:00.447Z,6.50
2022-08-21T18:11:31.887Z,6.17
2022-08-21T18:14:07.184Z,5.00
2022-08-21T18:16:37.469Z,3.80
2022-08-21T18:19:08.757Z,4.33
2022-08-21T18:21:39.117Z,4.60
2022-08-21T18:24:07.444Z,3.67
2022-08-21T18:26:39.000Z,4.10
2022-08-21T18:29:09.793Z,4.20
2022-08-21T18:31:40.101Z,3.70
2022-08-21T18:34:12.088Z,3.67
2022-08-21T18:36:39.985Z,3.70
2022-08-21T18:39:34.296Z,3.60
2022-08-21T18:41:57.285Z,4.20
2022-08-21T18:44:28.595Z,4.87
2022-08-21T18:46:58.085Z,4.20
2022-08-21T18:49:25.806Z,4.13
2022-08-21T18:51:53.793Z,4.13
2022-08-21T18:54:25.086Z,4.67
2022-08-21T18:56:54.981Z,5.37
2022-08-21T18:59:26.775Z,4.97
2022-08-21T19:01:54.973Z,4.70
2022-08-21T19:07:10.825Z,18.60
2022-08-21T19:09:38.559Z,19.90
2022-08-21T19:12:08.576Z,23.30
2022-08-21T19:14:40.862Z,13.03
2022-08-21T19:17:09.752Z,17.57
2022-08-21T19:19:39.389Z,13.90
2022-08-21T19:22:11.676Z,9.20
2022-08-21T19:24:40.229Z,11.50
2022-08-21T19:27:17.991Z,9.83
2022-08-21T19:29:47.023Z,10.27
2022-08-21T19:32:14.966Z,10.47
2022-08-21T19:34:43.276Z,8.40
2022-08-21T19:37:16.193Z,7.60
2022-08-21T19:42:34.585Z,7.10
2022-08-21T19:45:05.565Z,12.00
2022-08-21T19:47:33.741Z,11.90
2022-08-21T19:50:17.479Z,11.57
2022-08-21T19:52:55.040Z,11.10
2022-08-21T19:55:29.331Z,10.37
2022-08-21T19:57:57.225Z,11.20
2022-08-21T20:00:26.967Z,11.60
2022-08-21T20:02:54.597Z,9.50
2022-08-21T20:05:22.557Z,8.57
2022-08-21T20:07:50.473Z,9.90
2022-08-21T20:10:18.710Z,15.93
2022-08-21T20:12:50.505Z,92.10
2022-08-21T20:15:21.974Z,56.43
2022-08-21T20:17:52.152Z,28.87
2022-08-21T20:20:20.736Z,16.40
2022-08-21T20:22:48.521Z,11.90
2022-08-21T20:25:16.183Z,9.40
2022-08-21T20:27:49.112Z,9.57
2022-08-21T20:30:18.367Z,10.60
2022-08-21T20:32:51.813Z,7.50
2022-08-21T20:35:19.749Z,6.90
2022-08-21T20:37:58.527Z,7.03
2022-08-21T20:40:32.598Z,5.73
2022-08-21T20:43:02.443Z,5.93
2022-08-21T20:45:32.878Z,5.13
2022-08-21T20:48:08.008Z,6.60
2022-08-21T20:50:40.287Z,5.97
2022-08-21T20:53:13.231Z,5.83
2022-08-21T20:55:46.574Z,6.50
2022-08-21T20:58:22.171Z,6.27
2022-08-21T21:00:59.923Z,5.90
2022-08-21T21:03:35.131Z,6.03
2022-08-21T21:06:06.533Z,5.73
2022-08-21T21:08:40.606Z,6.17
2022-08-21T21:11:18.188Z,6.63
2022-08-21T21:13:50.530Z,6.50
2022-08-21T21:16:24.077Z,6.27
2022-08-21T21:19:01.543Z,6.80
2022-08-21T21:21:34.904Z,7.07
2022-08-21T21:24:08.461Z,7.10
2022-08-21T21:26:46.103Z,7.07
2022-08-21T21:29:21.657Z,6.30
2022-08-21T21:31:49.576Z,6.10
2022-08-21T21:34:18.729Z,6.37
2022-08-21T21:36:56.129Z,5.20
2022-08-21T21:39:35.981Z,6.10
2022-08-21T21:42:16.140Z,6.23
2022-08-21T21:45:11.550Z,6.07
2022-08-21T21:47:51.846Z,5.50
2022-08-21T21:50:33.789Z,5.70
2022-08-21T21:53:18.458Z,5.87
2022-08-21T21:56:07.966Z,6.57
2022-08-21T21:58:47.565Z,6.27
2022-08-21T22:01:22.106Z,6.83
2022-08-21T22:03:58.034Z,6.53
2022-08-21T22:06:35.615Z,6.37
2022-08-21T22:09:11.255Z,6.77
2022-08-21T22:14:40.726Z,5.90
2022-08-21T22:17:19.453Z,5.60
2022-08-21T22:19:50.711Z,5.20
2022-08-21T22:22:23.771Z,5.33
2022-08-21T22:24:55.181Z,6.63
2022-08-21T22:27:27.494Z,6.03
2022-08-21T22:29:58.605Z,7.37
2022-08-21T22:32:30.360Z,6.17
2022-08-21T22:35:03.051Z,6.80
2022-08-21T22:37:38.238Z,6.17
2022-08-21T22:40:07.850Z,7.60
2022-08-21T22:42:35.521Z,8.60
2022-08-21T22:45:09.388Z,7.90
2022-08-21T22:47:44.764Z,8.90
2022-08-21T22:50:21.451Z,8.43
2022-08-21T22:52:54.526Z,8.30
2022-08-21T22:55:25.770Z,9.30
2022-08-21T22:58:09.424Z,7.20
2022-08-21T23:00:51.393Z,7.10
2022-08-21T23:03:26.598Z,7.60
2022-08-21T23:06:00.686Z,7.03
2022-08-21T23:08:34.224Z,6.50
2022-08-21T23:11:08.758Z,6.90
2022-08-21T23:13:41.419Z,6.83
2022-08-21T23:16:24.278Z,5.80
2022-08-21T23:19:03.562Z,5.60
2022-08-21T23:21:43.105Z,5.70
2022-08-21T23:24:30.159Z,5.87
2022-08-21T23:27:14.695Z,6.10
2022-08-21T23:29:56.007Z,6.30
2022-08-21T23:32:52.381Z,5.80
2022-08-21T23:35:43.909Z,5.87
2022-08-21T23:38:22.856Z,5.00
2022-08-21T23:40:56.439Z,5.57
2022-08-21T23:43:40.750Z,5.77
2022-08-21T23:46:33.429Z,5.40
2022-08-21T23:49:13.744Z,4.67
2022-08-21T23:51:53.386Z,5.90
2022-08-21T23:54:25.394Z,5.90
